Time,TemperatureF,DewpointF,PressureIn,WindDirection,WindDirectionDegrees,WindSpeedMPH,WindSpeedGustMPH,Humidity,HourlyPrecipIn,Conditions,Clouds,dailyrainin,SoftwareType,DateUTC
2013-01-19 00:13:00,38.0,-99.9,-100.00,South,187,16.0,27.0,-999,-99.99,,,-99.99,,2013-01-19 05:13:00,
2013-01-19 00:23:00,-999.0,-99.9,-100.00,SSW,203,12.0,24.0,-999,-99.99,,,-99.99,,2013-01-19 05:23:00,
2013-01-19 00:33:00,39.0,-99.9,30.07,SSW,207,14.0,26.0,-999,-99.99,,,-99.99,,2013-01-19 05:33:00,
2013-01-19 00:53:00,39.0,-99.9,30.09,SW,218,18.0,30.0,-999,-99.99,,,-99.99,,2013-01-19 05:53:00,
2013-01-19 01:03:00,39.0,-99.9,30.09,SSW,208,13.0,23.0,-999,-99.99,,,-99.99,,2013-01-19 06:03:00,
2013-01-19 01:12:00,39.0,-99.9,30.09,SSW,202,12.0,19.0,-999,-99.99,,,-99.99,,2013-01-19 06:12:00,
2013-01-19 01:23:00,-999.0,-99.9,-100.00,SSW,213,13.0,21.0,-999,-99.99,,,-99.99,,2013-01-19 06:23:00,
2013-01-19 01:33:00,38.0,-99.9,30.08,SSW,202,9.0,22.0,-999,-99.99,,,-99.99,,2013-01-19 06:33:00,
2013-01-19 01:43:00,-999.0,-99.9,-100.00,SW,214,12.0,25.0,-999,-99.99,,,-99.99,,2013-01-19 06:43:00,
2013-01-19 02:12:00,39.0,-99.9,30.08,SSW,211,14.0,24.0,-999,-99.99,,,-99.99,,2013-01-19 07:12:00,
2013-01-19 02:43:00,38.0,-99.9,30.09,SSW,201,13.0,25.0,-999,-99.99,,,-99.99,,2013-01-19 07:43:00,
2013-01-19 03:03:00,38.0,-99.9,30.08,North,-999,-999.0,-999.0,-999,-99.99,,,-99.99,,2013-01-19 08:03:00,
2013-01-19 03:12:00,38.0,-99.9,-100.00,SSW,198,9.0,18.0,-999,-99.99,,,-99.99,,2013-01-19 08:12:00,
2013-01-19 03:23:00,-999.0,-99.9,-100.00,SSW,198,9.0,15.0,-999,-99.99,,,-99.99,,2013-01-19 08:23:00,
2013-01-19 03:43:00,38.0,-99.9,-100.00,SSW,202,11.0,19.0,-999,-99.99,,,-99.99,,2013-01-19 08:43:00,
2013-01-19 04:12:00,38.0,-99.9,30.07,SSW,205,9.0,15.0,-999,-99.99,,,-99.99,,2013-01-19 09:12:00,
2013-01-19 04:33:00,38.0,-99.9,30.06,SSW,200,7.0,13.0,-999,-99.99,,,-99.99,,2013-01-19 09:33:00,
2013-01-19 04:43:00,38.0,-99.9,-100.00,SSW,205,8.0,15.0,-999,-99.99,,,-99.99,,2013-01-19 09:43:00,
2013-01-19 04:53:00,-999.0,-99.9,-100.00,SSW,194,7.0,16.0,-999,-99.99,,,-99.99,,2013-01-19 09:53:00,
2013-01-19 05:13:00,-999.0,-99.9,-100.00,SSW,208,9.0,17.0,-999,-99.99,,,-99.99,,2013-01-19 10:13:00,
2013-01-19 05:43:00,41.0,-99.9,30.05,SW,214,13.0,26.0,-999,-99.99,,,-99.99,,2013-01-19 10:43:00,
2013-01-19 06:13:00,39.0,-99.9,30.05,SSW,212,8.0,12.0,-999,-99.99,,,-99.99,,2013-01-19 11:13:00,
2013-01-19 06:36:00,42.0,-99.9,-100.00,SSW,203,12.0,25.0,-999,-99.99,,,-99.99,,2013-01-19 11:36:00,
2013-01-19 06:48:00,41.0,-99.9,30.04,SW,216,13.0,22.0,-999,-99.99,,,-99.99,,2013-01-19 11:48:00,
2013-01-19 07:49:00,42.0,-99.9,-100.00,SSW,212,12.0,21.0,-999,-99.99,,,-99.99,,2013-01-19 12:49:00,
2013-01-19 08:03:00,42.0,-99.9,30.05,SW,223,15.0,23.0,-999,-99.99,,,-99.99,,2013-01-19 13:03:00,
2013-01-19 08:13:00,-999.0,-99.9,-100.00,SW,223,16.0,25.0,-999,-99.99,,,-99.99,,2013-01-19 13:13:00,
2013-01-19 08:34:00,42.0,-99.9,30.05,SSW,209,15.0,28.0,-999,-99.99,,,-99.99,,2013-01-19 13:34:00,
2013-01-19 08:43:00,42.0,-99.9,30.05,SW,217,14.0,28.0,-999,-99.99,,,-99.99,,2013-01-19 13:43:00,
2013-01-19 08:54:00,-999.0,-99.9,-100.00,SSW,212,14.0,24.0,-999,-99.99,,,-99.99,,2013-01-19 13:54:00,
2013-01-19 09:13:00,42.0,-99.9,-100.00,SW,221,11.0,25.0,-999,-99.99,,,-99.99,,2013-01-19 14:13:00,
2013-01-19 09:23:00,-999.0,-99.9,-100.00,SW,218,14.0,20.0,-999,-99.99,,,-99.99,,2013-01-19 14:23:00,
2013-01-19 09:54:00,43.0,-99.9,30.06,SW,218,14.0,23.0,-999,-99.99,,,-99.99,,2013-01-19 14:54:00,
2013-01-19 10:13:00,44.0,-99.9,30.06,SW,217,15.0,23.0,-999,-99.99,,,-99.99,,2013-01-19 15:13:00,
2013-01-19 10:43:00,45.0,-99.9,-100.00,SW,223,13.0,23.0,-999,-99.99,,,-99.99,,2013-01-19 15:43:00,
2013-01-19 10:54:00,-999.0,-99.9,-100.00,SW,224,15.0,25.0,-999,-99.99,,,-99.99,,2013-01-19 15:54:00,
2013-01-19 11:04:00,45.0,-99.9,30.05,SW,217,15.0,24.0,-999,-99.99,,,-99.99,,2013-01-19 16:04:00,
2013-01-19 11:13:00,-999.0,-99.9,-100.00,SW,223,15.0,27.0,-999,-99.99,,,-99.99,,2013-01-19 16:13:00,
2013-01-19 11:23:00,46.0,-99.9,30.05,SW,220,13.0,22.0,-999,-99.99,,,-99.99,,2013-01-19 16:23:00,
2013-01-19 11:34:00,46.0,-99.9,30.04,SW,233,20.0,27.0,-999,-99.99,,,-99.99,,2013-01-19 16:34:00,
2013-01-19 11:43:00,47.0,-99.9,-100.00,SW,229,14.0,21.0,-999,-99.99,,,-99.99,,2013-01-19 16:43:00,
2013-01-19 11:54:00,-999.0,-99.9,-100.00,SW,231,19.0,26.0,-999,-99.99,,,-99.99,,2013-01-19 16:54:00,
2013-01-19 12:03:00,47.0,-99.9,30.01,SW,224,15.0,22.0,-999,-99.99,,,-99.99,,2013-01-19 17:03:00,
2013-01-19 12:24:00,47.0,-99.9,-100.00,SW,232,17.0,25.0,-999,-99.99,,,-99.99,,2013-01-19 17:24:00,
2013-01-19 12:29:00,-999.0,-99.9,-100.00,SW,227,17.0,23.0,-999,-99.99,,,-99.99,,2013-01-19 17:29:00,
2013-01-19 12:38:00,48.0,-99.9,29.99,SW,229,19.0,28.0,-999,-99.99,,,-99.99,,2013-01-19 17:38:00,
2013-01-19 12:50:00,-999.0,-99.9,-100.00,SW,232,17.0,25.0,-999,-99.99,,,-99.99,,2013-01-19 17:50:00,
2013-01-19 12:55:00,49.0,-99.9,29.97,SW,228,12.0,20.0,-999,-99.99,,,-99.99,,2013-01-19 17:55:00,
2013-01-19 13:15:00,49.0,-99.9,29.95,SW,216,17.0,25.0,-999,-99.99,,,-99.99,,2013-01-19 18:15:00,
2013-01-19 13:29:00,49.0,-99.9,29.95,North,-999,-999.0,-999.0,-999,-99.99,,,-99.99,,2013-01-19 18:29:00,
2013-01-19 13:49:00,49.0,-99.9,-100.00,SW,217,15.0,24.0,-999,-99.99,,,-99.99,,2013-01-19 18:49:00,
2013-01-19 14:04:00,-999.0,-99.9,-100.00,SW,228,14.0,21.0,-999,-99.99,,,-99.99,,2013-01-19 19:04:00,
2013-01-19 14:32:00,51.0,-99.9,29.91,SW,221,13.0,25.0,-999,-99.99,,,-99.99,,2013-01-19 19:32:00,
2013-01-19 14:50:00,51.0,-99.9,29.90,SW,215,11.0,22.0,-999,-99.99,,,-99.99,,2013-01-19 19:50:00,
2013-01-19 14:59:00,51.0,-99.9,29.89,SSW,203,13.0,21.0,-999,-99.99,,,-99.99,,2013-01-19 19:59:00,
2013-01-19 15:12:00,51.0,-99.9,29.89,SW,222,13.0,24.0,-999,-99.99,,,-99.99,,2013-01-19 20:12:00,
2013-01-19 15:20:00,51.0,-99.9,29.89,SW,218,13.0,25.0,-999,-99.99,,,-99.99,,2013-01-19 20:20:00,
2013-01-19 15:52:00,-999.0,-99.9,-100.00,SSW,208,10.0,28.0,-999,-99.99,,,-99.99,,2013-01-19 20:52:00,
2013-01-19 15:59:00,51.0,-99.9,29.86,SSW,207,11.0,33.0,-999,-99.99,,,-99.99,,2013-01-19 20:59:00,
2013-01-19 16:09:00,51.0,-99.9,29.85,SSW,210,11.0,25.0,-999,-99.99,,,-99.99,,2013-01-19 21:09:00,
2013-01-19 16:15:00,51.0,-99.9,-100.00,SSW,212,13.0,22.0,-999,-99.99,,,-99.99,,2013-01-19 21:15:00,
2013-01-19 16:30:00,51.0,-99.9,29.84,SSW,199,13.0,21.0,-999,-99.99,,,-99.99,,2013-01-19 21:30:00,
2013-01-19 16:49:00,51.0,-99.9,29.84,SSW,199,13.0,21.0,-999,-99.99,,,-99.99,,2013-01-19 21:49:00,
2013-01-19 16:56:00,51.0,-99.9,-100.00,SSW,213,14.0,25.0,-999,-99.99,,,-99.99,,2013-01-19 21:56:00,
2013-01-19 17:20:00,51.0,-99.9,29.82,SSW,212,17.0,31.0,-999,-99.99,,,-99.99,,2013-01-19 22:20:00,
2013-01-19 17:50:00,-999.0,-99.9,-100.00,SW,219,13.0,33.0,-999,-99.99,,,-99.99,,2013-01-19 22:50:00,
2013-01-19 18:14:00,51.0,-99.9,29.82,SSW,211,10.0,21.0,-999,-99.99,,,-99.99,,2013-01-19 23:14:00,
2013-01-19 18:29:00,-999.0,-99.9,-100.00,SW,219,12.0,20.0,-999,-99.99,,,-99.99,,2013-01-19 23:29:00,
2013-01-19 18:54:00,50.0,-99.9,-100.00,SSW,212,9.0,19.0,-999,-99.99,,,-99.99,,2013-01-19 23:54:00,
2013-01-19 19:08:00,-999.0,-99.9,-100.00,SW,219,11.0,22.0,-999,-99.99,,,-99.99,,2013-01-20 00:08:00,
2013-01-19 19:18:00,-999.0,-99.9,-100.00,SW,215,8.0,23.0,-999,-99.99,,,-99.99,,2013-01-20 00:18:00,
2013-01-19 19:26:00,50.0,-99.9,29.82,SW,217,15.0,23.0,-999,-99.99,,,-99.99,,2013-01-20 00:26:00,
2013-01-19 19:39:00,50.0,-99.9,29.81,SW,218,13.0,20.0,-999,-99.99,,,-99.99,,2013-01-20 00:39:00,
2013-01-19 19:49:00,50.0,-99.9,-100.00,SSW,213,11.0,18.0,-999,-99.99,,,-99.99,,2013-01-20 00:49:00,
2013-01-19 20:22:00,50.0,-99.9,29.80,SSW,212,13.0,25.0,-999,-99.99,,,-99.99,,2013-01-20 01:22:00,
2013-01-19 20:39:00,50.0,-99.9,29.79,SW,215,17.0,25.0,-999,-99.99,,,-99.99,,2013-01-20 01:39:00,
2013-01-19 21:16:00,50.0,-99.9,-100.00,SW,222,15.0,25.0,-999,-99.99,,,-99.99,,2013-01-20 02:16:00,
2013-01-19 21:47:00,49.0,-99.9,-100.00,SW,214,17.0,26.0,-999,-99.99,,,-99.99,,2013-01-20 02:47:00,
2013-01-19 22:40:00,49.0,-99.9,29.74,SW,223,22.0,34.0,-999,-99.99,,,-99.99,,2013-01-20 03:40:00,
2013-01-19 22:48:00,49.0,-99.9,29.74,SW,229,21.0,34.0,-999,-99.99,,,-99.99,,2013-01-20 03:48:00,
2013-01-19 23:05:00,49.0,-99.9,29.73,SW,223,22.0,32.0,-999,-99.99,,,-99.99,,2013-01-20 04:05:00,